Time;durP1;ratioP1;P1;durP2;ratioP2;P2;SDS_P1;SDS_P2;PMS_P1;PMS_P2;Temp;Humidity;BMP_temperature;BMP_pressure;BME280_temperature;BME280_humidity;BME280_pressure;Samples;Min_cycle;Max_cycle;Signal;HPM_P1;HPM_P2
2023/11/21 00:02:14;;;;;;;0.73;0.45;;;;;;;1.53;76.97;101907.03;5076582;28;20053;-71
2023/11/21 00:04:43;;;;;;;1.13;0.75;;;;;;;1.53;76.81;101907.03;5076829;28;20055;-71
2023/11/21 00:07:08;;;;;;;2.78;0.50;;;;;;;1.53;77.21;101907.03;5076991;28;20040;-71
2023/11/21 00:09:36;;;;;;;1.15;0.50;;;;;;;1.53;77.28;101909.63;5076586;28;20055;-71
2023/11/21 00:12:03;;;;;;;1.13;0.60;;;;;;;1.52;77.10;101914.72;5075752;28;20055;-71
2023/11/21 00:14:30;;;;;;;1.60;1.05;;;;;;;1.51;77.00;101913.88;5075681;28;20059;-71
2023/11/21 00:16:57;;;;;;;1.27;0.60;;;;;;;1.52;77.00;101915.59;5075539;28;20044;-71
2023/11/21 00:19:24;;;;;;;1.38;0.57;;;;;;;1.50;77.45;101919.81;5075632;28;20055;-71
2023/11/21 00:21:52;;;;;;;3.63;0.90;;;;;;;1.50;76.61;101921.50;5075550;28;20044;-71
2023/11/21 00:24:19;;;;;;;1.90;0.90;;;;;;;1.49;76.85;101920.66;5076255;28;20048;-71
2023/11/21 00:26:48;;;;;;;1.77;0.90;;;;;;;1.50;77.04;101913.78;5075359;28;20486;-71
2023/11/21 00:29:17;;;;;;;3.10;0.60;;;;;;;1.49;76.70;101928.38;5075372;28;20045;-71
2023/11/21 00:31:44;;;;;;;1.25;0.80;;;;;;;1.49;76.76;101920.66;5076178;28;20044;-71
2023/11/21 00:34:12;;;;;;;1.58;0.88;;;;;;;1.49;77.43;101930.94;5076464;28;20106;-70
2023/11/21 00:36:38;;;;;;;0.80;0.63;;;;;;;1.50;76.65;101935.25;5075591;28;20048;-71
2023/11/21 00:39:07;;;;;;;2.15;0.57;;;;;;;1.49;76.87;101930.94;5075113;28;20054;-71
2023/11/21 00:41:34;;;;;;;1.45;0.70;;;;;;;1.50;77.23;101931.81;5075493;28;20476;-71
2023/11/21 00:44:01;;;;;;;1.30;0.57;;;;;;;1.49;77.15;101930.06;5075320;28;20041;-70
2023/11/21 00:46:29;;;;;;;0.75;0.47;;;;;;;1.49;76.69;101930.94;5075209;28;20044;-70
2023/11/21 00:48:56;;;;;;;1.55;0.50;;;;;;;1.50;76.98;101931.81;5074939;28;20045;-71
2023/11/21 00:51:23;;;;;;;0.98;0.50;;;;;;;1.44;76.98;101924.75;5075001;28;20051;-70
2023/11/21 00:53:50;;;;;;;1.30;0.50;;;;;;;1.50;77.11;101931.81;5074916;28;20045;-70
2023/11/21 00:56:18;;;;;;;2.33;1.38;;;;;;;1.50;77.43;101931.81;5075619;28;20397;-70
2023/11/21 00:58:49;;;;;;;1.42;0.50;;;;;;;1.50;77.07;101936.97;5074879;28;20094;-70
2023/11/21 01:01:16;;;;;;;0.90;0.60;;;;;;;1.50;77.07;101937.84;5075521;28;20048;-71
2023/11/21 01:03:43;;;;;;;1.23;0.60;;;;;;;1.50;77.33;101931.81;5076096;28;20048;-70
2023/11/21 01:06:10;;;;;;;2.45;0.93;;;;;;;1.50;77.70;101937.84;5075561;28;20041;-70
2023/11/21 01:08:37;;;;;;;1.17;0.40;;;;;;;1.50;77.43;101937.84;5074540;28;20048;-70
2023/11/21 01:11:04;;;;;;;1.73;0.75;;;;;;;1.50;77.65;101936.97;5074626;28;20044;-70
2023/11/21 01:13:35;;;;;;;1.30;1.05;;;;;;;1.51;77.69;101939.63;5075584;28;20451;-70
2023/11/21 01:16:03;;;;;;;0.85;0.52;;;;;;;1.51;77.52;101943.88;5074517;28;20127;-71
2023/11/21 01:18:30;;;;;;;1.38;0.57;;;;;;;1.50;77.13;101948.13;5075569;28;20059;-70
2023/11/21 01:20:57;;;;;;;0.65;0.47;;;;;;;1.51;77.30;101949.91;5074668;28;20192;-70
2023/11/21 01:23:24;;;;;;;2.30;0.50;;;;;;;1.51;77.16;101949.03;5075434;28;20048;-71
2023/11/21 01:25:51;;;;;;;1.27;0.70;;;;;;;1.52;77.48;101954.22;5075165;28;20458;-71
2023/11/21 01:28:19;;;;;;;1.60;0.68;;;;;;;1.53;77.07;101958.56;5074229;28;20049;-70
2023/11/21 01:30:47;;;;;;;1.42;0.75;;;;;;;1.52;77.62;101956.81;5074321;28;20048;-70
2023/11/21 01:33:15;;;;;;;1.40;0.77;;;;;;;1.53;77.50;101953.41;5074971;28;20075;-71
2023/11/21 01:35:42;;;;;;;1.80;0.60;;;;;;;1.53;77.28;101957.69;5074114;28;20049;-70
2023/11/21 01:38:09;;;;;;;1.00;0.57;;;;;;;1.54;77.57;101960.31;5074841;28;20055;-70
2023/11/21 01:40:36;;;;;;;1.52;0.60;;;;;;;1.53;77.22;101961.13;5073965;28;20048;-70
2023/11/21 01:43:03;;;;;;;1.42;0.80;;;;;;;1.55;77.15;101964.66;5074485;28;20478;-75
2023/11/21 01:45:31;;;;;;;0.95;0.60;;;;;;;1.55;77.17;101967.22;5073935;28;20048;-75
2023/11/21 01:48:00;;;;;;;1.05;0.60;;;;;;;1.56;77.15;101970.66;5074350;28;20055;-76
2023/11/21 01:50:28;;;;;;;0.77;0.60;;;;;;;1.55;77.52;101972.38;5074021;28;20052;-74
2023/11/21 01:52:55;;;;;;;0.90;0.65;;;;;;;1.56;77.62;101973.25;5073803;28;20053;-71
2023/11/21 01:55:22;;;;;;;1.05;0.52;;;;;;;1.56;77.74;101979.25;5073999;28;20489;-71
2023/11/21 01:57:49;;;;;;;2.47;0.60;;;;;;;1.56;77.30;101974.13;5073669;28;20045;-71
2023/11/21 02:00:15;;;;;;;0.90;0.50;;;;;;;1.56;77.46;101979.25;5074227;28;20075;-71
2023/11/21 02:02:43;;;;;;;1.05;0.57;;;;;;;1.57;77.39;101975.88;5073618;28;20056;-71
2023/11/21 02:05:13;;;;;;;1.35;0.57;;;;;;;1.59;77.80;101978.50;5074438;28;20131;-71
2023/11/21 02:07:40;;;;;;;1.05;0.50;;;;;;;1.60;78.05;101984.56;5074932;28;20044;-71
2023/11/21 02:10:08;;;;;;;1.08;0.95;;;;;;;1.60;77.71;101980.28;5073510;28;20481;-71
2023/11/21 02:12:36;;;;;;;2.80;0.40;;;;;;;1.60;77.23;101984.56;5073476;28;20063;-71
2023/11/21 02:15:05;;;;;;;1.20;0.50;;;;;;;1.60;77.79;101980.28;5073528;28;20045;-71
2023/11/21 02:17:32;;;;;;;0.57;0.40;;;;;;;1.61;77.79;101981.16;5073331;28;20097;-71
2023/11/21 02:19:59;;;;;;;1.08;0.60;;;;;;;1.62;77.41;101993.19;5073365;28;20056;-71
2023/11/21 02:22:32;;;;;;;1.80;0.50;;;;;;;1.63;77.50;101987.25;5074317;28;20044;-71
2023/11/21 02:25:00;;;;;;;1.15;0.52;;;;;;;1.64;77.51;101986.41;5073602;28;20052;-71
2023/11/21 02:27:27;;;;;;;0.52;0.40;;;;;;;1.62;77.73;101986.34;5074311;28;20494;-71
2023/11/21 02:29:54;;;;;;;1.60;0.52;;;;;;;1.64;77.45;101995.00;5073693;28;20060;-71
2023/11/21 02:32:22;;;;;;;0.57;0.40;;;;;;;1.64;77.76;101989.00;5073272;28;20489;-71
2023/11/21 02:34:49;;;;;;;3.58;0.40;;;;;;;1.65;77.93;101999.38;5073497;28;20044;-71
2023/11/21 02:37:16;;;;;;;0.70;0.40;;;;;;;1.61;77.31;101994.91;5074310;28;20055;-71
2023/11/21 02:39:43;;;;;;;0.88;0.50;;;;;;;1.65;77.91;102003.63;5074089;28;20054;-71
2023/11/21 02:42:11;;;;;;;1.17;0.40;;;;;;;1.65;77.67;102011.34;5074038;28;20040;-71
2023/11/21 02:44:38;;;;;;;1.30;0.52;;;;;;;1.64;77.35;102007.88;5073172;28;20048;-71
2023/11/21 02:47:05;;;;;;;1.00;0.45;;;;;;;1.64;78.05;102012.16;5077409;28;20048;-71
2023/11/21 02:49:34;;;;;;;1.73;0.50;;;;;;;1.64;77.33;102009.59;5078301;28;20048;-71
2023/11/21 02:52:01;;;;;;;2.97;0.40;;;;;;;1.62;77.37;102012.09;5077229;28;20044;-71
2023/11/21 02:54:28;;;;;;;0.57;0.40;;;;;;;1.62;77.33;102016.38;5077363;28;20098;-70
2023/11/21 02:56:55;;;;;;;1.25;0.55;;;;;;;1.62;77.28;102018.94;5077435;28;20049;-70
2023/11/21 02:59:23;;;;;;;0.73;0.60;;;;;;;1.63;77.29;102029.31;5077081;28;20057;-70
2023/11/21 03:01:50;;;;;;;1.27;0.55;;;;;;;1.64;77.69;102027.63;5077909;28;20054;-70
2023/11/21 03:04:18;;;;;;;0.68;0.47;;;;;;;1.63;77.50;102026.75;5078145;28;20114;-75
2023/11/21 03:06:45;;;;;;;0.75;0.57;;;;;;;1.62;77.85;102017.25;5078074;28;20048;-74
2023/11/21 03:09:13;;;;;;;0.70;0.43;;;;;;;1.63;77.42;102019.03;5076924;28;20489;-74
2023/11/21 03:11:40;;;;;;;0.73;0.50;;;;;;;1.63;78.05;102025.88;5076802;28;20051;-75
2023/11/21 03:14:06;;;;;;;1.45;0.45;;;;;;;1.64;77.72;102030.19;5077727;28;20048;-75
2023/11/21 03:16:35;;;;;;;0.65;0.45;;;;;;;1.64;77.44;102035.34;5076824;28;20049;-75
2023/11/21 03:19:02;;;;;;;0.82;0.60;;;;;;;1.65;77.81;102039.66;5077752;28;20082;-75
2023/11/21 03:21:29;;;;;;;1.27;1.00;;;;;;;1.65;77.83;102042.25;5077809;28;20058;-74
2023/11/21 03:23:56;;;;;;;1.23;0.50;;;;;;;1.65;77.88;102049.97;5078001;28;20045;-74
2023/11/21 03:26:23;;;;;;;0.85;0.50;;;;;;;1.65;77.44;102047.41;5076972;28;20110;-75
2023/11/21 03:28:50;;;;;;;2.05;0.52;;;;;;;1.65;77.63;102050.88;5076575;28;20045;-75
2023/11/21 03:31:18;;;;;;;1.88;1.60;;;;;;;1.65;77.87;102057.69;5076314;28;20048;-75
2023/11/21 03:33:47;;;;;;;0.98;0.60;;;;;;;1.66;77.96;102067.22;5077829;28;20050;-75
2023/11/21 03:36:14;;;;;;;0.77;0.60;;;;;;;1.66;77.72;102059.47;5077223;28;20040;-75
2023/11/21 03:38:41;;;;;;;0.65;0.50;;;;;;;1.66;77.96;102062.06;5076690;28;20048;-74
2023/11/21 03:41:09;;;;;;;0.60;0.40;;;;;;;1.67;77.87;102068.94;5077267;28;20070;-74
2023/11/21 03:43:36;;;;;;;0.77;0.55;;;;;;;1.66;78.03;102065.50;5076343;28;20040;-75
2023/11/21 03:46:03;;;;;;;1.23;0.60;;;;;;;1.67;77.68;102074.09;5077124;28;20049;-74
2023/11/21 03:48:30;;;;;;;1.00;0.45;;;;;;;1.68;77.79;102073.28;5076243;28;20048;-75
2023/11/21 03:50:59;;;;;;;1.05;0.55;;;;;;;1.67;77.69;102077.56;5077200;28;20052;-75
2023/11/21 03:53:25;;;;;;;1.13;0.55;;;;;;;1.65;77.62;102076.63;5076085;28;20079;-75
2023/11/21 03:55:52;;;;;;;2.35;0.80;;;;;;;1.68;77.82;102075.84;5076065;28;20048;-75
2023/11/21 03:58:19;;;;;;;0.80;0.50;;;;;;;1.67;77.50;102076.69;5075834;28;20047;-75
2023/11/21 04:00:48;;;;;;;1.02;0.55;;;;;;;1.68;77.88;102078.41;5075966;28;20489;-75
2023/11/21 04:03:15;;;;;;;1.17;0.60;;;;;;;1.68;77.37;102078.41;5076953;28;20057;-70
2023/11/21 04:05:42;;;;;;;1.05;0.50;;;;;;;1.69;77.72;102087.94;5076139;28;20045;-70
2023/11/21 04:08:10;;;;;;;0.98;0.52;;;;;;;1.69;77.62;102095.66;5075816;28;20136;-70
2023/11/21 04:10:39;;;;;;;1.05;0.68;;;;;;;1.69;77.18;102099.09;5075704;28;20505;-70
2023/11/21 04:13:06;;;;;;;0.80;0.40;;;;;;;1.69;77.93;102099.09;5075709;28;20052;-71
2023/11/21 04:15:33;;;;;;;1.30;0.73;;;;;;;1.70;77.79;102099.97;5075753;28;20489;-71
2023/11/21 04:18:00;;;;;;;1.10;0.65;;;;;;;1.70;77.29;102105.13;5076677;28;20339;-71
2023/11/21 04:20:27;;;;;;;1.00;0.60;;;;;;;1.70;77.72;102106.00;5075585;28;20511;-71
2023/11/21 04:22:54;;;;;;;1.10;0.60;;;;;;;1.71;77.54;102099.19;5076431;28;20048;-71
2023/11/21 04:25:23;;;;;;;1.00;0.50;;;;;;;1.71;77.57;102096.59;5076662;28;20063;-71
2023/11/21 04:27:50;;;;;;;0.90;0.52;;;;;;;1.70;77.71;102100.84;5075665;28;20045;-71
2023/11/21 04:30:17;;;;;;;1.83;0.40;;;;;;;1.71;77.98;102109.47;5075494;28;20044;-71
2023/11/21 04:32:44;;;;;;;1.23;0.55;;;;;;;1.70;77.85;102111.16;5075314;28;20040;-71
2023/11/21 04:35:10;;;;;;;2.88;0.50;;;;;;;1.72;77.30;102114.69;5076294;28;20375;-71
2023/11/21 04:37:37;;;;;;;1.50;0.63;;;;;;;1.71;77.83;102119.78;5075320;28;20054;-71
2023/11/21 04:40:06;;;;;;;0.80;0.50;;;;;;;1.72;77.54;102116.38;5076659;28;20052;-71
2023/11/21 04:42:35;;;;;;;1.10;0.60;;;;;;;1.71;77.62;102117.22;5075181;28;20499;-71
2023/11/21 04:45:05;;;;;;;1.50;0.57;;;;;;;1.71;77.71;102122.38;5076279;28;20448;-71
2023/11/21 04:47:31;;;;;;;1.33;0.80;;;;;;;1.71;77.62;102132.66;5075165;28;20486;-71
2023/11/21 04:49:58;;;;;;;1.35;0.40;;;;;;;1.70;78.06;102123.16;5075301;28;20055;-71
2023/11/21 04:52:25;;;;;;;1.08;0.60;;;;;;;1.70;77.52;102129.19;5075260;28;20041;-71
2023/11/21 04:54:54;;;;;;;0.68;0.50;;;;;;;1.71;77.93;102132.66;5076214;28;20151;-71
2023/11/21 04:57:21;;;;;;;1.42;0.70;;;;;;;1.71;77.39;102132.66;5074916;28;20045;-71
2023/11/21 04:59:50;;;;;;;1.42;0.60;;;;;;;1.70;77.79;102131.75;5075567;28;20098;-71
2023/11/21 05:02:19;;;;;;;1.60;0.80;;;;;;;1.69;77.59;102137.75;5074837;28;20519;-71
2023/11/21 05:04:46;;;;;;;1.67;0.82;;;;;;;1.72;77.47;102142.13;5075795;28;20048;-71
2023/11/21 05:07:13;;;;;;;1.00;0.50;;;;;;;1.72;77.63;102149.88;5075730;28;20051;-71
2023/11/21 05:09:43;;;;;;;0.80;0.60;;;;;;;1.71;77.79;102149.00;5073971;28;20048;-71
2023/11/21 05:12:10;;;;;;;0.82;0.60;;;;;;;1.71;77.97;102151.56;5075282;28;20151;-71
2023/11/21 05:14:37;;;;;;;2.55;0.50;;;;;;;1.72;78.17;102155.91;5074804;28;20049;-74
2023/11/21 05:17:07;;;;;;;1.58;0.75;;;;;;;1.72;78.09;102155.03;5075465;28;20469;-75
2023/11/21 05:19:35;;;;;;;2.05;0.60;;;;;;;1.73;77.72;102156.75;5075409;28;20055;-75
2023/11/21 05:22:02;;;;;;;1.02;0.50;;;;;;;1.74;78.02;102159.41;5074987;28;20481;-75
2023/11/21 05:24:29;;;;;;;1.40;0.65;;;;;;;1.74;78.09;102166.28;5074830;28;20052;-71
2023/11/21 05:26:56;;;;;;;2.22;0.40;;;;;;;1.75;78.27;102168.03;5074303;28;20199;-71
2023/11/21 05:29:23;;;;;;;0.65;0.47;;;;;;;1.75;77.73;102165.44;5075396;28;20102;-71
2023/11/21 05:31:50;;;;;;;0.55;0.50;;;;;;;1.76;77.83;102167.19;5074087;28;20045;-71
2023/11/21 05:34:20;;;;;;;4.13;0.60;;;;;;;1.76;77.67;102173.22;5074290;28;20050;-71
2023/11/21 05:36:47;;;;;;;1.42;0.50;;;;;;;1.77;77.65;102176.69;5074084;28;20048;-71
2023/11/21 05:39:17;;;;;;;0.85;0.50;;;;;;;1.77;77.88;102176.69;5074154;28;20044;-71
2023/11/21 05:41:44;;;;;;;0.93;0.50;;;;;;;1.77;78.06;102180.16;5074377;28;20471;-71
2023/11/21 05:44:11;;;;;;;0.57;0.40;;;;;;;1.78;78.38;102178.44;5074713;28;20056;-71
2023/11/21 05:46:38;;;;;;;0.70;0.40;;;;;;;1.78;78.39;102189.63;5073887;28;20070;-71
2023/11/21 05:49:05;;;;;;;0.50;0.30;;;;;;;1.79;78.36;102191.41;5074669;28;20074;-71
2023/11/21 05:51:33;;;;;;;0.70;0.35;;;;;;;1.79;78.33;102193.97;5074822;28;20044;-71
2023/11/21 05:54:00;;;;;;;0.60;0.50;;;;;;;1.80;78.12;102197.44;5074816;28;20051;-71
2023/11/21 05:56:27;;;;;;;0.63;0.45;;;;;;;1.80;78.56;102202.59;5073776;28;20096;-71
2023/11/21 05:58:54;;;;;;;0.50;0.50;;;;;;;1.81;78.55;102212.06;5074451;28;20048;-71
2023/11/21 06:01:20;;;;;;;0.60;0.40;;;;;;;1.80;78.23;102211.19;5073876;28;20044;-70
2023/11/21 06:03:48;;;;;;;0.93;0.40;;;;;;;1.82;78.07;102205.19;5074187;28;20063;-71
2023/11/21 06:06:14;;;;;;;0.50;0.38;;;;;;;1.82;78.33;102207.78;5074712;28;20048;-71
2023/11/21 06:08:43;;;;;;;2.08;0.40;;;;;;;1.83;78.42;102205.28;5073772;28;20049;-71
2023/11/21 06:11:11;;;;;;;1.10;0.40;;;;;;;1.85;78.15;102213.97;5073472;28;20044;-70
2023/11/21 06:13:38;;;;;;;3.40;0.30;;;;;;;1.86;78.16;102217.41;5074452;28;20045;-71
2023/11/21 06:16:05;;;;;;;1.20;0.35;;;;;;;1.86;78.15;102220.84;5073564;28;20044;-71
2023/11/21 06:18:32;;;;;;;0.82;0.50;;;;;;;1.87;78.08;102224.31;5074640;28;20044;-71
2023/11/21 06:21:00;;;;;;;0.82;0.50;;;;;;;1.88;77.89;102229.53;5072495;28;20054;-70
2023/11/21 06:23:27;;;;;;;0.55;0.40;;;;;;;1.87;78.36;102220.03;5073723;28;20135;-75
2023/11/21 06:25:55;;;;;;;0.60;0.30;;;;;;;1.89;78.28;102226.13;5074489;28;20054;-74
2023/11/21 06:28:22;;;;;;;0.60;0.40;;;;;;;1.91;78.69;102233.94;5073411;28;20052;-75
2023/11/21 06:30:50;;;;;;;0.40;0.30;;;;;;;1.91;78.50;102242.53;5074239;28;20054;-75
2023/11/21 06:33:17;;;;;;;0.47;0.30;;;;;;;1.92;78.38;102236.56;5073510;28;20409;-75
2023/11/21 06:35:44;;;;;;;0.50;0.22;;;;;;;1.93;78.42;102243.47;5073232;28;20045;-75
2023/11/21 06:38:11;;;;;;;1.08;0.38;;;;;;;1.94;78.60;102258.13;5074427;28;20068;-74
2023/11/21 06:40:38;;;;;;;0.80;0.35;;;;;;;1.95;78.29;102251.28;5073504;28;20048;-75
2023/11/21 06:43:07;;;;;;;0.82;0.30;;;;;;;1.95;78.18;102259.00;5074027;28;20045;-75
2023/11/21 06:45:34;;;;;;;0.90;0.50;;;;;;;1.95;78.61;102261.56;5074137;28;20048;-75
2023/11/21 06:48:01;;;;;;;0.40;0.30;;;;;;;1.93;78.26;102258.91;5073439;28;20105;-75
2023/11/21 06:50:28;;;;;;;0.40;0.30;;;;;;;1.97;78.51;102262.53;5074008;28;20051;-75
2023/11/21 06:52:55;;;;;;;1.25;0.40;;;;;;;1.98;78.44;102274.59;5073153;28;20500;-75
2023/11/21 06:55:21;;;;;;;0.57;0.40;;;;;;;1.98;78.67;102275.47;5073955;28;20055;-75
2023/11/21 06:57:48;;;;;;;1.23;0.95;;;;;;;1.99;78.51;102279.81;5073074;28;20405;-75
2023/11/21 07:00:19;;;;;;;0.40;0.30;;;;;;;2.00;78.06;102276.41;5073097;28;20048;-75
2023/11/21 07:02:45;;;;;;;0.50;0.30;;;;;;;1.98;78.35;102277.16;5073911;28;20125;-74
2023/11/21 07:05:14;;;;;;;1.10;0.25;;;;;;;2.01;78.79;102283.31;5073786;28;20049;-74
2023/11/21 07:07:40;;;;;;;0.77;0.30;;;;;;;2.01;78.12;102287.59;5073213;28;20556;-74
2023/11/21 07:10:09;;;;;;;0.70;0.40;;;;;;;2.02;78.36;102291.91;5073059;28;20131;-74
2023/11/21 07:12:36;;;;;;;0.82;0.40;;;;;;;2.02;78.07;102290.25;5074173;28;20049;-74
2023/11/21 07:15:05;;;;;;;1.23;0.30;;;;;;;2.03;78.63;102289.41;5072750;28;20055;-74
2023/11/21 07:17:35;;;;;;;1.15;0.70;;;;;;;2.04;78.50;102292.88;5072845;28;20048;-75
2023/11/21 07:20:01;;;;;;;0.55;0.30;;;;;;;2.03;78.59;102293.69;5073961;28;20123;-75
2023/11/21 07:22:28;;;;;;;0.80;0.40;;;;;;;2.04;78.58;102292.88;5073189;28;20059;-74
2023/11/21 07:24:56;;;;;;;0.80;0.57;;;;;;;2.06;78.65;102298.09;5073063;28;20044;-75
2023/11/21 07:27:23;;;;;;;0.60;0.38;;;;;;;2.06;78.12;102290.38;5073637;28;20098;-74
2023/11/21 07:29:50;;;;;;;0.70;0.40;;;;;;;2.06;78.33;102298.09;5072980;28;20093;-74
2023/11/21 07:32:17;;;;;;;0.60;0.40;;;;;;;2.06;78.60;102303.25;5074507;28;20048;-74
2023/11/21 07:34:45;;;;;;;0.80;0.47;;;;;;;2.07;78.26;102297.28;5076404;28;20049;-73
2023/11/21 07:37:12;;;;;;;2.35;0.60;;;;;;;2.07;78.60;102298.16;5076538;28;20049;-78
2023/11/21 07:39:41;;;;;;;0.45;0.35;;;;;;;2.08;78.50;102305.09;5076932;28;20066;-74
2023/11/21 07:42:09;;;;;;;0.80;0.40;;;;;;;2.07;78.37;102303.31;5077560;28;20052;-73
2023/11/21 07:44:35;;;;;;;0.60;0.60;;;;;;;2.09;78.29;102298.22;5076539;28;20049;-75
2023/11/21 07:47:02;;;;;;;0.70;0.50;;;;;;;2.10;78.51;102305.13;5076325;28;20215;-74
2023/11/21 07:49:31;;;;;;;0.80;0.50;;;;;;;2.09;78.29;102304.25;5077065;28;20040;-81
2023/11/21 07:51:59;;;;;;;0.70;0.40;;;;;;;2.12;78.48;102308.66;5076046;28;20048;-76
2023/11/21 07:54:26;;;;;;;1.17;0.40;;;;;;;2.13;78.09;102307.81;5077117;28;20040;-74
2023/11/21 07:56:53;;;;;;;0.70;0.60;;;;;;;2.12;78.75;102312.09;5077288;28;20398;-73
2023/11/21 07:59:19;;;;;;;2.40;0.80;;;;;;;2.05;78.24;102293.75;5075934;28;20044;-75
2023/11/21 08:01:46;;;;;;;1.00;0.45;;;;;;;2.13;78.28;102312.97;5077131;28;20387;-75
2023/11/21 08:04:13;;;;;;;0.93;0.30;;;;;;;2.14;78.11;102318.22;5076150;28;20390;-75
2023/11/21 08:06:41;;;;;;;1.15;0.40;;;;;;;2.09;78.42;102317.16;5077223;28;20045;-76
2023/11/21 08:09:09;;;;;;;1.13;0.38;;;;;;;2.15;78.56;102326.81;5075875;28;20048;-75
2023/11/21 08:11:38;;;;;;;0.60;0.40;;;;;;;2.15;78.44;102319.97;5076763;28;20147;-75
2023/11/21 08:14:05;;;;;;;1.23;0.30;;;;;;;2.17;78.53;102325.19;5076032;28;20049;-75
2023/11/21 08:16:32;;;;;;;0.50;0.35;;;;;;;2.18;78.26;102337.25;5075690;28;20041;-74
2023/11/21 08:18:59;;;;;;;1.05;0.30;;;;;;;2.19;78.56;102333.84;5076076;28;20056;-75
2023/11/21 08:21:26;;;;;;;0.52;0.40;;;;;;;2.17;78.55;102335.50;5075889;28;20048;-75
2023/11/21 08:23:54;;;;;;;1.55;0.30;;;;;;;2.20;78.26;102338.22;5076593;28;20107;-74
2023/11/21 08:26:23;;;;;;;0.93;0.40;;;;;;;2.20;78.14;102335.63;5077460;28;20085;-74
2023/11/21 08:28:52;;;;;;;0.50;0.20;;;;;;;2.20;78.38;102338.22;5076210;28;20040;-78
2023/11/21 08:31:18;;;;;;;0.30;0.20;;;;;;;2.22;78.55;102344.28;5076360;28;20441;-77
2023/11/21 08:33:45;;;;;;;0.95;0.30;;;;;;;2.21;78.56;102347.69;5077096;28;20062;-76
2023/11/21 08:36:12;;;;;;;1.27;0.32;;;;;;;2.24;78.30;102355.56;5076780;28;20127;-79
2023/11/21 08:38:39;;;;;;;0.45;0.15;;;;;;;2.23;78.59;102356.38;5076353;28;20051;-76
2023/11/21 08:41:08;;;;;;;0.55;0.13;;;;;;;2.24;78.64;102353.84;5077020;28;20389;-73
2023/11/21 08:43:39;;;;;;;0.52;0.20;;;;;;;2.27;78.58;102368.56;5076185;28;20049;-79
2023/11/21 08:46:06;;;;;;;0.13;0.10;;;;;;;2.28;78.45;102369.44;5076783;28;20405;-72
2023/11/21 08:48:33;;;;;;;2.50;0.25;;;;;;;2.29;78.17;102379.84;5077119;28;20485;-72
2023/11/21 08:51:00;;;;;;;0.75;0.30;;;;;;;2.29;78.07;102387.56;5075709;28;20051;-72
2023/11/21 08:53:27;;;;;;;0.50;0.20;;;;;;;2.30;78.14;102379.00;5075924;28;20048;-72
2023/11/21 08:55:54;;;;;;;0.10;0.10;;;;;;;2.30;78.09;102386.75;5076112;28;20045;-73
2023/11/21 08:58:21;;;;;;;0.30;0.30;;;;;;;2.31;78.05;102385.94;5076902;28;20053;-73
2023/11/21 09:00:49;;;;;;;0.30;0.20;;;;;;;2.29;78.09;102381.53;5076153;28;20044;-73
2023/11/21 09:03:16;;;;;;;0.45;0.30;;;;;;;2.29;77.99;102392.72;5076303;28;20056;-72
2023/11/21 09:05:42;;;;;;;0.20;0.20;;;;;;;2.30;77.90;102399.63;5076480;28;20384;-74
2023/11/21 09:08:09;;;;;;;0.45;0.20;;;;;;;2.30;78.03;102396.19;5075579;28;20127;-72
2023/11/21 09:10:36;;;;;;;0.30;0.20;;;;;;;2.31;77.70;102398.84;5075972;28;20044;-72
2023/11/21 09:13:03;;;;;;;0.30;0.20;;;;;;;2.32;77.67;102398.00;5075115;28;20131;-72
2023/11/21 09:15:30;;;;;;;0.47;0.25;;;;;;;2.33;77.48;102398.88;5075152;28;20050;-72
2023/11/21 09:17:59;;;;;;;2.28;1.17;;;;;;;2.33;77.87;102396.31;5076692;28;20049;-73
2023/11/21 09:20:26;;;;;;;0.93;0.20;;;;;;;2.33;77.87;102389.44;5075991;28;20110;-74
2023/11/21 09:22:54;;;;;;;0.65;0.20;;;;;;;2.34;77.77;102404.13;5075913;28;20499;-73
2023/11/21 09:25:21;;;;;;;0.30;0.20;;;;;;;2.34;77.83;102398.09;5075034;28;20516;-73
2023/11/21 09:27:48;;;;;;;0.25;0.15;;;;;;;2.37;77.68;102405.94;5075914;28;20045;-73
2023/11/21 09:30:16;;;;;;;1.08;0.10;;;;;;;2.37;77.44;102400.78;5074727;28;20041;-72
2023/11/21 09:32:45;;;;;;;1.08;0.20;;;;;;;2.38;77.14;102402.53;5075779;28;20050;-73
2023/11/21 09:35:13;;;;;;;0.25;0.20;;;;;;;2.38;77.53;102403.41;5075496;28;20054;-73
2023/11/21 09:37:40;;;;;;;0.30;0.20;;;;;;;2.37;77.44;102406.81;5074851;28;20044;-74
2023/11/21 09:40:13;;;;;;;0.20;0.20;;;;;;;2.40;77.45;102406.94;5075752;28;20045;-74
2023/11/21 09:42:45;;;;;;;2.40;0.20;;;;;;;2.42;77.23;102410.47;5074722;28;20136;-76
2023/11/21 09:45:20;;;;;;;0.30;0.30;;;;;;;2.43;77.69;102412.22;5074634;28;20063;-69
2023/11/21 09:47:48;;;;;;;0.30;0.20;;;;;;;2.44;77.20;102416.56;5074883;28;20048;-71
2023/11/21 09:50:18;;;;;;;0.45;0.30;;;;;;;2.45;77.32;102425.22;5075564;28;20055;-69
2023/11/21 09:52:55;;;;;;;0.88;0.20;;;;;;;2.45;77.54;102427.78;5074852;28;20489;-72
2023/11/21 09:55:23;;;;;;;1.20;0.30;;;;;;;2.45;77.50;102422.63;5074214;28;20048;-70
2023/11/21 09:57:50;;;;;;;0.80;0.30;;;;;;;2.46;77.10;102432.09;5074661;28;20072;-74
2023/11/21 10:00:20;;;;;;;0.52;0.20;;;;;;;2.48;77.24;102435.66;5074556;28;20390;-74
2023/11/21 10:02:49;;;;;;;0.82;0.30;;;;;;;2.48;77.15;102439.09;5074918;28;20473;-74
2023/11/21 10:05:21;;;;;;;0.70;0.30;;;;;;;2.49;77.45;102437.41;5075189;28;20131;-74
2023/11/21 10:07:50;;;;;;;1.65;0.43;;;;;;;2.50;77.13;102443.44;5074443;28;20124;-74
2023/11/21 10:10:21;;;;;;;1.48;0.30;;;;;;;2.48;77.33;102441.69;5074567;28;20481;-74
2023/11/21 10:12:53;;;;;;;0.40;0.30;;;;;;;2.50;77.23;102440.84;5075167;28;20045;-74
2023/11/21 10:15:22;;;;;;;0.52;0.40;;;;;;;2.50;77.24;102438.28;5074273;28;20048;-74
2023/11/21 10:17:53;;;;;;;1.15;0.40;;;;;;;2.51;77.24;102442.63;5074484;28;20462;-75
2023/11/21 10:20:21;;;;;;;0.90;0.43;;;;;;;2.52;77.23;102444.38;5074016;28;20582;-76
2023/11/21 10:22:48;;;;;;;1.45;0.50;;;;;;;2.52;77.46;102450.41;5074299;28;20512;-76
2023/11/21 10:25:16;;;;;;;0.80;0.50;;;;;;;2.50;77.22;102448.59;5074068;28;20048;-77
2023/11/21 10:27:43;;;;;;;1.90;0.80;;;;;;;2.55;77.53;102447.09;5074053;28;20045;-77
2023/11/21 10:30:12;;;;;;;0.52;0.30;;;;;;;2.56;77.19;102446.25;5074214;28;20048;-76
2023/11/21 10:32:40;;;;;;;1.77;0.40;;;;;;;2.56;77.61;102444.59;5074072;28;20448;-76
2023/11/21 10:35:09;;;;;;;0.40;0.38;;;;;;;2.58;77.45;102444.63;5074997;28;20386;-76
2023/11/21 10:37:39;;;;;;;1.30;0.40;;;;;;;2.59;77.63;102444.72;5074766;28;20041;-76
2023/11/21 10:40:08;;;;;;;0.50;0.30;;;;;;;2.60;77.58;102443.88;5073894;28;20053;-76
2023/11/21 10:42:35;;;;;;;0.60;0.45;;;;;;;2.61;77.22;102443.03;5074984;28;20123;-76
2023/11/21 10:45:05;;;;;;;1.35;0.40;;;;;;;2.63;77.60;102437.97;5073699;28;20486;-75
2023/11/21 10:47:32;;;;;;;0.45;0.30;;;;;;;2.65;77.37;102449.25;5073656;28;20045;-76
2023/11/21 10:50:01;;;;;;;0.70;0.30;;;;;;;2.65;77.60;102450.13;5073921;28;20048;-76
2023/11/21 10:52:28;;;;;;;4.72;0.98;;;;;;;2.65;77.45;102451.81;5073800;28;20088;-75
2023/11/21 10:54:58;;;;;;;0.70;0.50;;;;;;;2.67;77.54;102457.91;5074369;28;20123;-76
2023/11/21 10:57:26;;;;;;;0.88;0.65;;;;;;;2.67;77.35;102461.34;5073616;28;20052;-76
2023/11/21 10:59:55;;;;;;;2.78;0.77;;;;;;;2.68;77.64;102464.84;5074010;28;20507;-76
2023/11/21 11:02:27;;;;;;;0.70;0.50;;;;;;;2.70;77.33;102468.34;5073612;28;20086;-75
2023/11/21 11:04:56;;;;;;;0.60;0.40;;;;;;;2.71;77.19;102459.81;5073621;28;20044;-74
2023/11/21 11:07:27;;;;;;;3.17;1.00;;;;;;;2.72;77.18;102471.00;5075762;28;20045;-73
2023/11/21 11:09:55;;;;;;;4.30;0.57;;;;;;;2.72;77.56;102471.00;5077702;28;20047;-73
2023/11/21 11:12:25;;;;;;;0.45;0.30;;;;;;;2.73;77.16;102465.88;5077450;28;20485;-79
2023/11/21 11:14:52;;;;;;;1.15;0.30;;;;;;;2.75;77.12;102471.13;5077445;28;20500;-72
2023/11/21 11:17:20;;;;;;;0.90;0.60;;;;;;;2.76;76.99;102471.19;5078387;28;20051;-71
2023/11/21 11:19:48;;;;;;;0.60;0.60;;;;;;;2.77;76.92;102467.78;5077930;28;20481;-71
2023/11/21 11:22:30;;;;;;;0.50;0.30;;;;;;;2.75;77.07;102472.00;5078614;28;20389;-71
2023/11/21 11:25:21;;;;;;;0.98;0.40;;;;;;;2.77;76.94;102475.53;5077566;28;20041;-71
2023/11/21 11:27:59;;;;;;;1.05;0.30;;;;;;;2.78;76.54;102482.44;5077378;28;20086;-71
2023/11/21 11:30:41;;;;;;;2.05;0.30;;;;;;;2.80;76.37;102490.25;5078149;28;20048;-71
2023/11/21 11:33:15;;;;;;;0.43;0.30;;;;;;;2.81;76.30;102489.44;5077408;28;20049;-70
2023/11/21 11:35:53;;;;;;;2.05;0.40;;;;;;;2.81;76.73;102487.72;5077165;28;20049;-71
2023/11/21 11:38:22;;;;;;;0.68;0.30;;;;;;;2.82;76.43;102492.09;5078069;28;20422;-71